sensor_id;sensor_type;location;lat;lon;timestamp;P1;durP1;ratioP1;P2;durP2;ratioP2
12950;SDS011;6540;50.858;7.232;2023-06-22T00:01:15;1.77;;;1.67;;
12950;SDS011;6540;50.858;7.232;2023-06-22T00:03:41;1.73;;;1.63;;
12950;SDS011;6540;50.858;7.232;2023-06-22T00:06:06;2.43;;;1.70;;
12950;SDS011;6540;50.858;7.232;2023-06-22T00:08:31;1.90;;;1.53;;
12950;SDS011;6540;50.858;7.232;2023-06-22T00:10:57;2.70;;;2.37;;
12950;SDS011;6540;50.858;7.232;2023-06-22T00:13:22;1.87;;;1.70;;
12950;SDS011;6540;50.858;7.232;2023-06-22T00:15:47;2.17;;;1.93;;
12950;SDS011;6540;50.858;7.232;2023-06-22T00:18:13;1.60;;;1.50;;
12950;SDS011;6540;50.858;7.232;2023-06-22T00:20:38;1.73;;;1.63;;
12950;SDS011;6540;50.858;7.232;2023-06-22T00:23:05;1.70;;;1.60;;
12950;SDS011;6540;50.858;7.232;2023-06-22T00:25:39;2.00;;;1.90;;
12950;SDS011;6540;50.858;7.232;2023-06-22T00:28:05;2.10;;;1.57;;
12950;SDS011;6540;50.858;7.232;2023-06-22T00:30:32;1.80;;;1.70;;
12950;SDS011;6540;50.858;7.232;2023-06-22T00:32:58;1.47;;;1.37;;
12950;SDS011;6540;50.858;7.232;2023-06-22T00:35:25;1.50;;;1.40;;
12950;SDS011;6540;50.858;7.232;2023-06-22T00:37:54;1.60;;;1.50;;
12950;SDS011;6540;50.858;7.232;2023-06-22T00:40:25;1.80;;;1.70;;
12950;SDS011;6540;50.858;7.232;2023-06-22T00:42:51;1.70;;;1.60;;
12950;SDS011;6540;50.858;7.232;2023-06-22T00:45:16;1.70;;;1.60;;
12950;SDS011;6540;50.858;7.232;2023-06-22T00:47:42;1.60;;;1.50;;
12950;SDS011;6540;50.858;7.232;2023-06-22T00:50:08;1.67;;;1.57;;
12950;SDS011;6540;50.858;7.232;2023-06-22T00:52:43;2.10;;;1.53;;
12950;SDS011;6540;50.858;7.232;2023-06-22T00:55:09;1.93;;;1.83;;
12950;SDS011;6540;50.858;7.232;2023-06-22T00:57:34;1.10;;;1.10;;
12950;SDS011;6540;50.858;7.232;2023-06-22T01:00:02;1.77;;;1.67;;
12950;SDS011;6540;50.858;7.232;2023-06-22T01:02:31;1.87;;;1.77;;
12950;SDS011;6540;50.858;7.232;2023-06-22T01:04:57;2.20;;;2.00;;
12950;SDS011;6540;50.858;7.232;2023-06-22T01:07:28;1.50;;;1.40;;
12950;SDS011;6540;50.858;7.232;2023-06-22T01:10:21;2.83;;;1.90;;
12950;SDS011;6540;50.858;7.232;2023-06-22T01:12:51;1.67;;;1.23;;
12950;SDS011;6540;50.858;7.232;2023-06-22T01:15:23;2.03;;;1.60;;
12950;SDS011;6540;50.858;7.232;2023-06-22T01:17:49;1.67;;;1.57;;
12950;SDS011;6540;50.858;7.232;2023-06-22T01:20:17;1.93;;;1.73;;
12950;SDS011;6540;50.858;7.232;2023-06-22T01:23:33;2.30;;;2.10;;
12950;SDS011;6540;50.858;7.232;2023-06-22T01:25:51;2.17;;;1.97;;
12950;SDS011;6540;50.858;7.232;2023-06-22T01:31:06;2.30;;;2.10;;
12950;SDS011;6540;50.858;7.232;2023-06-22T01:33:34;2.03;;;1.80;;
12950;SDS011;6540;50.858;7.232;2023-06-22T01:36:02;1.90;;;1.70;;
12950;SDS011;6540;50.858;7.232;2023-06-22T01:38:29;2.43;;;1.60;;
12950;SDS011;6540;50.858;7.232;2023-06-22T01:40:56;1.40;;;1.30;;
12950;SDS011;6540;50.858;7.232;2023-06-22T01:43:22;1.43;;;1.33;;
12950;SDS011;6540;50.858;7.232;2023-06-22T01:45:49;2.03;;;1.80;;
12950;SDS011;6540;50.858;7.232;2023-06-22T01:48:16;2.23;;;1.87;;
12950;SDS011;6540;50.858;7.232;2023-06-22T01:50:42;1.77;;;1.67;;
12950;SDS011;6540;50.858;7.232;2023-06-22T01:53:08;1.63;;;1.53;;
12950;SDS011;6540;50.858;7.232;2023-06-22T01:55:33;2.67;;;2.20;;
12950;SDS011;6540;50.858;7.232;2023-06-22T01:57:59;1.97;;;1.70;;
12950;SDS011;6540;50.858;7.232;2023-06-22T02:00:25;2.60;;;1.20;;
12950;SDS011;6540;50.858;7.232;2023-06-22T02:02:54;1.63;;;1.53;;
12950;SDS011;6540;50.858;7.232;2023-06-22T02:05:26;1.93;;;1.80;;
12950;SDS011;6540;50.858;7.232;2023-06-22T02:08:06;1.67;;;1.57;;
12950;SDS011;6540;50.858;7.232;2023-06-22T02:10:32;2.13;;;1.77;;
12950;SDS011;6540;50.858;7.232;2023-06-22T02:13:00;2.50;;;2.00;;
12950;SDS011;6540;50.858;7.232;2023-06-22T02:15:29;1.47;;;1.37;;
12950;SDS011;6540;50.858;7.232;2023-06-22T02:17:55;2.17;;;1.97;;
12950;SDS011;6540;50.858;7.232;2023-06-22T02:20:21;3.47;;;3.17;;
12950;SDS011;6540;50.858;7.232;2023-06-22T02:22:46;2.70;;;2.33;;
12950;SDS011;6540;50.858;7.232;2023-06-22T02:25:11;3.33;;;1.83;;
12950;SDS011;6540;50.858;7.232;2023-06-22T02:27:37;2.20;;;1.90;;
12950;SDS011;6540;50.858;7.232;2023-06-22T02:30:06;1.77;;;1.67;;
12950;SDS011;6540;50.858;7.232;2023-06-22T02:32:35;1.73;;;1.63;;
12950;SDS011;6540;50.858;7.232;2023-06-22T02:35:01;1.60;;;1.50;;
12950;SDS011;6540;50.858;7.232;2023-06-22T02:37:29;1.50;;;1.40;;
12950;SDS011;6540;50.858;7.232;2023-06-22T02:39:55;1.87;;;1.77;;
12950;SDS011;6540;50.858;7.232;2023-06-22T02:42:21;1.50;;;1.40;;
12950;SDS011;6540;50.858;7.232;2023-06-22T02:44:46;1.50;;;1.40;;
12950;SDS011;6540;50.858;7.232;2023-06-22T02:47:12;1.87;;;1.77;;
12950;SDS011;6540;50.858;7.232;2023-06-22T02:49:37;2.10;;;1.97;;
12950;SDS011;6540;50.858;7.232;2023-06-22T02:52:03;2.47;;;2.27;;
12950;SDS011;6540;50.858;7.232;2023-06-22T02:54:29;2.20;;;2.00;;
12950;SDS011;6540;50.858;7.232;2023-06-22T02:56:54;2.00;;;1.90;;
12950;SDS011;6540;50.858;7.232;2023-06-22T02:59:20;1.97;;;1.87;;
12950;SDS011;6540;50.858;7.232;2023-06-22T03:01:48;1.90;;;1.77;;
12950;SDS011;6540;50.858;7.232;2023-06-22T03:04:15;1.83;;;1.73;;
12950;SDS011;6540;50.858;7.232;2023-06-22T03:06:40;1.97;;;1.57;;
12950;SDS011;6540;50.858;7.232;2023-06-22T03:09:06;2.13;;;1.93;;
12950;SDS011;6540;50.858;7.232;2023-06-22T03:11:32;1.50;;;1.40;;
12950;SDS011;6540;50.858;7.232;2023-06-22T03:13:58;2.20;;;1.53;;
12950;SDS011;6540;50.858;7.232;2023-06-22T03:16:24;1.30;;;1.20;;
12950;SDS011;6540;50.858;7.232;2023-06-22T03:18:50;1.80;;;1.70;;
12950;SDS011;6540;50.858;7.232;2023-06-22T03:21:16;2.20;;;2.00;;
12950;SDS011;6540;50.858;7.232;2023-06-22T03:23:42;2.80;;;2.60;;
12950;SDS011;6540;50.858;7.232;2023-06-22T03:26:08;2.07;;;1.87;;
12950;SDS011;6540;50.858;7.232;2023-06-22T03:28:34;1.47;;;1.37;;
12950;SDS011;6540;50.858;7.232;2023-06-22T03:30:59;1.83;;;1.73;;
12950;SDS011;6540;50.858;7.232;2023-06-22T03:33:24;1.97;;;1.87;;
12950;SDS011;6540;50.858;7.232;2023-06-22T03:35:50;2.03;;;1.93;;
12950;SDS011;6540;50.858;7.232;2023-06-22T03:38:18;2.80;;;2.40;;
12950;SDS011;6540;50.858;7.232;2023-06-22T03:40:44;2.10;;;2.00;;
12950;SDS011;6540;50.858;7.232;2023-06-22T03:43:09;1.90;;;1.80;;
12950;SDS011;6540;50.858;7.232;2023-06-22T03:45:34;2.40;;;2.20;;
12950;SDS011;6540;50.858;7.232;2023-06-22T03:48:00;2.00;;;1.80;;
12950;SDS011;6540;50.858;7.232;2023-06-22T03:50:26;1.97;;;1.77;;
12950;SDS011;6540;50.858;7.232;2023-06-22T03:52:52;1.93;;;1.60;;
12950;SDS011;6540;50.858;7.232;2023-06-22T03:55:19;3.27;;;2.40;;
12950;SDS011;6540;50.858;7.232;2023-06-22T03:57:45;1.70;;;1.60;;
12950;SDS011;6540;50.858;7.232;2023-06-22T04:00:10;1.50;;;1.43;;
12950;SDS011;6540;50.858;7.232;2023-06-22T04:02:36;2.30;;;1.87;;
12950;SDS011;6540;50.858;7.232;2023-06-22T04:05:02;3.03;;;2.33;;
12950;SDS011;6540;50.858;7.232;2023-06-22T04:07:27;2.20;;;2.00;;
12950;SDS011;6540;50.858;7.232;2023-06-22T04:09:52;1.70;;;1.60;;
12950;SDS011;6540;50.858;7.232;2023-06-22T04:12:18;1.67;;;1.57;;
12950;SDS011;6540;50.858;7.232;2023-06-22T04:14:43;1.80;;;1.67;;
12950;SDS011;6540;50.858;7.232;2023-06-22T04:17:09;1.80;;;1.70;;
12950;SDS011;6540;50.858;7.232;2023-06-22T04:19:34;4.17;;;2.10;;
12950;SDS011;6540;50.858;7.232;2023-06-22T04:21:59;1.77;;;1.67;;
12950;SDS011;6540;50.858;7.232;2023-06-22T04:24:25;2.03;;;1.93;;
12950;SDS011;6540;50.858;7.232;2023-06-22T04:26:50;2.60;;;2.40;;
12950;SDS011;6540;50.858;7.232;2023-06-22T04:29:18;2.37;;;2.17;;
12950;SDS011;6540;50.858;7.232;2023-06-22T04:31:44;3.07;;;2.40;;
12950;SDS011;6540;50.858;7.232;2023-06-22T04:34:09;2.20;;;2.00;;
12950;SDS011;6540;50.858;7.232;2023-06-22T04:36:35;2.07;;;1.87;;
12950;SDS011;6540;50.858;7.232;2023-06-22T04:39:06;2.00;;;1.90;;
12950;SDS011;6540;50.858;7.232;2023-06-22T04:41:34;1.77;;;1.67;;
12950;SDS011;6540;50.858;7.232;2023-06-22T04:44:13;2.93;;;2.03;;
12950;SDS011;6540;50.858;7.232;2023-06-22T04:46:48;2.47;;;2.27;;
12950;SDS011;6540;50.858;7.232;2023-06-22T04:49:19;2.20;;;2.10;;
12950;SDS011;6540;50.858;7.232;2023-06-22T04:51:45;2.30;;;2.17;;
12950;SDS011;6540;50.858;7.232;2023-06-22T04:54:11;3.57;;;2.50;;
12950;SDS011;6540;50.858;7.232;2023-06-22T04:56:36;2.80;;;2.60;;
12950;SDS011;6540;50.858;7.232;2023-06-22T04:59:02;2.07;;;1.90;;
12950;SDS011;6540;50.858;7.232;2023-06-22T05:01:30;2.60;;;2.33;;
12950;SDS011;6540;50.858;7.232;2023-06-22T05:03:56;2.00;;;1.80;;
12950;SDS011;6540;50.858;7.232;2023-06-22T05:06:23;2.57;;;2.37;;
12950;SDS011;6540;50.858;7.232;2023-06-22T05:08:55;2.27;;;2.07;;
12950;SDS011;6540;50.858;7.232;2023-06-22T05:11:27;4.77;;;3.00;;
12950;SDS011;6540;50.858;7.232;2023-06-22T05:13:53;5.13;;;2.40;;
12950;SDS011;6540;50.858;7.232;2023-06-22T05:16:19;2.43;;;2.30;;
12950;SDS011;6540;50.858;7.232;2023-06-22T05:18:54;3.67;;;2.87;;
12950;SDS011;6540;50.858;7.232;2023-06-22T05:21:23;3.13;;;2.87;;
12950;SDS011;6540;50.858;7.232;2023-06-22T05:23:50;4.30;;;2.23;;
12950;SDS011;6540;50.858;7.232;2023-06-22T05:26:16;1.80;;;1.70;;
12950;SDS011;6540;50.858;7.232;2023-06-22T05:28:43;3.20;;;2.70;;
12950;SDS011;6540;50.858;7.232;2023-06-22T05:31:11;2.77;;;2.07;;
12950;SDS011;6540;50.858;7.232;2023-06-22T05:33:38;2.30;;;2.13;;
12950;SDS011;6540;50.858;7.232;2023-06-22T05:36:04;3.43;;;2.97;;
12950;SDS011;6540;50.858;7.232;2023-06-22T05:38:30;2.00;;;1.90;;
12950;SDS011;6540;50.858;7.232;2023-06-22T05:40:56;2.97;;;2.33;;
12950;SDS011;6540;50.858;7.232;2023-06-22T05:43:21;2.30;;;2.17;;
12950;SDS011;6540;50.858;7.232;2023-06-22T05:45:47;2.53;;;2.20;;
12950;SDS011;6540;50.858;7.232;2023-06-22T05:48:12;2.67;;;2.47;;
12950;SDS011;6540;50.858;7.232;2023-06-22T05:50:37;3.10;;;2.20;;
12950;SDS011;6540;50.858;7.232;2023-06-22T05:53:03;2.80;;;2.23;;
12950;SDS011;6540;50.858;7.232;2023-06-22T05:55:28;2.27;;;2.07;;
12950;SDS011;6540;50.858;7.232;2023-06-22T05:57:53;2.00;;;1.80;;
12950;SDS011;6540;50.858;7.232;2023-06-22T06:00:19;2.10;;;1.90;;
12950;SDS011;6540;50.858;7.232;2023-06-22T06:02:45;3.43;;;2.43;;
12950;SDS011;6540;50.858;7.232;2023-06-22T06:05:11;2.37;;;2.13;;
12950;SDS011;6540;50.858;7.232;2023-06-22T06:07:38;2.43;;;2.00;;
12950;SDS011;6540;50.858;7.232;2023-06-22T06:10:04;2.70;;;2.50;;
12950;SDS011;6540;50.858;7.232;2023-06-22T06:12:31;2.67;;;2.47;;
12950;SDS011;6540;50.858;7.232;2023-06-22T06:14:56;2.67;;;2.47;;
12950;SDS011;6540;50.858;7.232;2023-06-22T06:17:21;3.33;;;2.13;;
12950;SDS011;6540;50.858;7.232;2023-06-22T06:19:47;3.40;;;2.50;;
12950;SDS011;6540;50.858;7.232;2023-06-22T06:22:12;3.50;;;2.47;;
12950;SDS011;6540;50.858;7.232;2023-06-22T06:24:38;2.57;;;2.37;;
12950;SDS011;6540;50.858;7.232;2023-06-22T06:27:03;2.87;;;2.57;;
12950;SDS011;6540;50.858;7.232;2023-06-22T06:29:29;2.70;;;2.27;;
12950;SDS011;6540;50.858;7.232;2023-06-22T06:31:55;2.87;;;2.63;;
12950;SDS011;6540;50.858;7.232;2023-06-22T06:34:21;3.37;;;2.37;;
12950;SDS011;6540;50.858;7.232;2023-06-22T06:36:46;2.27;;;2.00;;
12950;SDS011;6540;50.858;7.232;2023-06-22T06:39:12;3.13;;;2.80;;
12950;SDS011;6540;50.858;7.232;2023-06-22T06:41:37;2.73;;;2.50;;
12950;SDS011;6540;50.858;7.232;2023-06-22T06:44:02;2.77;;;2.50;;
12950;SDS011;6540;50.858;7.232;2023-06-22T06:46:28;3.27;;;2.47;;
12950;SDS011;6540;50.858;7.232;2023-06-22T06:48:53;2.80;;;2.40;;
12950;SDS011;6540;50.858;7.232;2023-06-22T06:51:19;4.90;;;2.83;;
12950;SDS011;6540;50.858;7.232;2023-06-22T06:53:44;2.70;;;2.47;;
12950;SDS011;6540;50.858;7.232;2023-06-22T06:56:09;2.37;;;2.00;;
12950;SDS011;6540;50.858;7.232;2023-06-22T06:58:35;2.40;;;2.20;;
12950;SDS011;6540;50.858;7.232;2023-06-22T07:01:01;3.43;;;2.60;;
12950;SDS011;6540;50.858;7.232;2023-06-22T07:03:28;3.03;;;2.80;;
12950;SDS011;6540;50.858;7.232;2023-06-22T07:05:53;3.00;;;2.63;;
12950;SDS011;6540;50.858;7.232;2023-06-22T07:08:19;2.33;;;2.13;;
12950;SDS011;6540;50.858;7.232;2023-06-22T07:10:44;2.10;;;1.97;;
12950;SDS011;6540;50.858;7.232;2023-06-22T07:13:09;2.70;;;2.23;;
12950;SDS011;6540;50.858;7.232;2023-06-22T07:15:35;3.80;;;3.00;;
12950;SDS011;6540;50.858;7.232;2023-06-22T07:18:00;3.83;;;2.60;;
12950;SDS011;6540;50.858;7.232;2023-06-22T07:20:25;2.30;;;2.10;;
12950;SDS011;6540;50.858;7.232;2023-06-22T07:22:51;2.53;;;2.30;;
12950;SDS011;6540;50.858;7.232;2023-06-22T07:25:17;2.37;;;2.17;;
12950;SDS011;6540;50.858;7.232;2023-06-22T07:27:44;3.03;;;2.67;;
12950;SDS011;6540;50.858;7.232;2023-06-22T07:30:30;3.30;;;3.00;;
12950;SDS011;6540;50.858;7.232;2023-06-22T07:32:57;3.70;;;2.50;;
12950;SDS011;6540;50.858;7.232;2023-06-22T07:35:23;2.77;;;2.57;;
12950;SDS011;6540;50.858;7.232;2023-06-22T07:37:48;2.80;;;2.07;;
12950;SDS011;6540;50.858;7.232;2023-06-22T07:40:14;2.97;;;2.70;;
12950;SDS011;6540;50.858;7.232;2023-06-22T07:42:39;4.20;;;2.90;;
12950;SDS011;6540;50.858;7.232;2023-06-22T07:45:05;2.53;;;2.33;;
12950;SDS011;6540;50.858;7.232;2023-06-22T07:47:33;3.00;;;2.30;;
12950;SDS011;6540;50.858;7.232;2023-06-22T07:50:00;2.50;;;2.30;;
12950;SDS011;6540;50.858;7.232;2023-06-22T07:52:26;2.43;;;2.17;;
12950;SDS011;6540;50.858;7.232;2023-06-22T07:54:53;2.57;;;2.37;;
12950;SDS011;6540;50.858;7.232;2023-06-22T07:57:18;2.17;;;2.03;;
12950;SDS011;6540;50.858;7.232;2023-06-22T07:59:44;2.43;;;2.23;;
12950;SDS011;6540;50.858;7.232;2023-06-22T08:02:10;2.37;;;2.13;;
12950;SDS011;6540;50.858;7.232;2023-06-22T08:04:35;2.50;;;2.20;;
12950;SDS011;6540;50.858;7.232;2023-06-22T08:07:01;2.00;;;1.90;;
12950;SDS011;6540;50.858;7.232;2023-06-22T08:09:30;2.50;;;2.30;;
12950;SDS011;6540;50.858;7.232;2023-06-22T08:11:56;3.13;;;2.20;;
12950;SDS011;6540;50.858;7.232;2023-06-22T08:14:22;2.60;;;2.40;;
12950;SDS011;6540;50.858;7.232;2023-06-22T08:16:50;2.53;;;2.30;;
12950;SDS011;6540;50.858;7.232;2023-06-22T08:19:16;3.10;;;2.80;;
12950;SDS011;6540;50.858;7.232;2023-06-22T08:21:41;2.10;;;2.00;;
12950;SDS011;6540;50.858;7.232;2023-06-22T08:24:07;3.17;;;2.57;;
12950;SDS011;6540;50.858;7.232;2023-06-22T08:26:33;2.83;;;2.50;;
12950;SDS011;6540;50.858;7.232;2023-06-22T08:29:02;2.97;;;2.70;;
12950;SDS011;6540;50.858;7.232;2023-06-22T08:31:28;3.00;;;2.80;;
12950;SDS011;6540;50.858;7.232;2023-06-22T08:33:53;2.70;;;2.43;;
12950;SDS011;6540;50.858;7.232;2023-06-22T08:36:19;3.73;;;2.43;;
12950;SDS011;6540;50.858;7.232;2023-06-22T08:38:44;2.43;;;2.23;;
12950;SDS011;6540;50.858;7.232;2023-06-22T08:41:10;2.77;;;2.57;;
12950;SDS011;6540;50.858;7.232;2023-06-22T08:43:35;2.83;;;2.13;;
12950;SDS011;6540;50.858;7.232;2023-06-22T08:46:01;3.47;;;2.77;;
12950;SDS011;6540;50.858;7.232;2023-06-22T08:48:27;4.77;;;2.57;;
12950;SDS011;6540;50.858;7.232;2023-06-22T08:50:53;2.40;;;2.20;;
12950;SDS011;6540;50.858;7.232;2023-06-22T08:53:18;2.33;;;2.13;;
12950;SDS011;6540;50.858;7.232;2023-06-22T08:55:44;2.43;;;2.20;;
12950;SDS011;6540;50.858;7.232;2023-06-22T08:58:10;2.13;;;1.97;;
12950;SDS011;6540;50.858;7.232;2023-06-22T09:00:35;2.80;;;2.33;;
12950;SDS011;6540;50.858;7.232;2023-06-22T09:03:01;2.43;;;2.17;;
12950;SDS011;6540;50.858;7.232;2023-06-22T09:05:26;2.30;;;2.10;;
12950;SDS011;6540;50.858;7.232;2023-06-22T09:07:52;2.53;;;2.33;;
12950;SDS011;6540;50.858;7.232;2023-06-22T09:10:19;2.50;;;2.30;;
12950;SDS011;6540;50.858;7.232;2023-06-22T09:12:45;2.43;;;2.23;;
12950;SDS011;6540;50.858;7.232;2023-06-22T09:15:10;3.37;;;3.07;;
12950;SDS011;6540;50.858;7.232;2023-06-22T09:17:36;2.80;;;2.47;;
12950;SDS011;6540;50.858;7.232;2023-06-22T09:20:02;2.17;;;1.97;;
12950;SDS011;6540;50.858;7.232;2023-06-22T09:22:30;1.83;;;1.73;;
12950;SDS011;6540;50.858;7.232;2023-06-22T09:24:56;2.47;;;2.27;;
12950;SDS011;6540;50.858;7.232;2023-06-22T09:27:22;2.47;;;2.27;;
12950;SDS011;6540;50.858;7.232;2023-06-22T09:29:48;2.97;;;2.37;;
12950;SDS011;6540;50.858;7.232;2023-06-22T09:32:14;2.73;;;2.13;;
12950;SDS011;6540;50.858;7.232;2023-06-22T09:34:39;2.63;;;2.40;;
12950;SDS011;6540;50.858;7.232;2023-06-22T09:37:04;3.17;;;2.67;;
12950;SDS011;6540;50.858;7.232;2023-06-22T09:39:30;2.37;;;2.17;;
12950;SDS011;6540;50.858;7.232;2023-06-22T09:41:57;2.73;;;2.00;;
12950;SDS011;6540;50.858;7.232;2023-06-22T09:44:24;2.00;;;1.90;;
12950;SDS011;6540;50.858;7.232;2023-06-22T09:46:49;2.23;;;2.03;;
12950;SDS011;6540;50.858;7.232;2023-06-22T09:49:14;4.40;;;1.97;;
12950;SDS011;6540;50.858;7.232;2023-06-22T09:51:39;2.80;;;2.50;;
12950;SDS011;6540;50.858;7.232;2023-06-22T09:54:11;2.77;;;2.00;;
12950;SDS011;6540;50.858;7.232;2023-06-22T09:56:36;2.30;;;2.10;;
12950;SDS011;6540;50.858;7.232;2023-06-22T09:59:02;2.33;;;1.93;;
12950;SDS011;6540;50.858;7.232;2023-06-22T10:01:28;2.60;;;1.90;;
12950;SDS011;6540;50.858;7.232;2023-06-22T10:03:53;2.13;;;1.93;;
12950;SDS011;6540;50.858;7.232;2023-06-22T10:06:20;2.10;;;1.93;;
12950;SDS011;6540;50.858;7.232;2023-06-22T10:08:46;2.00;;;1.90;;
12950;SDS011;6540;50.858;7.232;2023-06-22T10:11:13;2.27;;;2.17;;
12950;SDS011;6540;50.858;7.232;2023-06-22T10:13:38;2.37;;;2.17;;
12950;SDS011;6540;50.858;7.232;2023-06-22T10:16:04;4.43;;;2.97;;
12950;SDS011;6540;50.858;7.232;2023-06-22T10:18:29;2.50;;;2.30;;
12950;SDS011;6540;50.858;7.232;2023-06-22T10:20:55;1.97;;;1.83;;
12950;SDS011;6540;50.858;7.232;2023-06-22T10:23:21;3.13;;;2.83;;
12950;SDS011;6540;50.858;7.232;2023-06-22T10:25:46;3.47;;;2.30;;
12950;SDS011;6540;50.858;7.232;2023-06-22T10:28:12;2.47;;;2.23;;
12950;SDS011;6540;50.858;7.232;2023-06-22T10:30:38;3.07;;;2.43;;
12950;SDS011;6540;50.858;7.232;2023-06-22T10:33:06;2.50;;;2.30;;
12950;SDS011;6540;50.858;7.232;2023-06-22T10:35:32;2.93;;;2.73;;
12950;SDS011;6540;50.858;7.232;2023-06-22T10:37:58;2.40;;;2.20;;
12950;SDS011;6540;50.858;7.232;2023-06-22T10:40:23;2.80;;;2.60;;
12950;SDS011;6540;50.858;7.232;2023-06-22T10:42:48;3.13;;;2.50;;
12950;SDS011;6540;50.858;7.232;2023-06-22T10:45:15;3.17;;;2.40;;
12950;SDS011;6540;50.858;7.232;2023-06-22T10:47:41;3.70;;;3.10;;
12950;SDS011;6540;50.858;7.232;2023-06-22T10:50:09;3.20;;;2.77;;
12950;SDS011;6540;50.858;7.232;2023-06-22T10:52:35;3.10;;;2.80;;
12950;SDS011;6540;50.858;7.232;2023-06-22T10:55:01;3.50;;;2.80;;
12950;SDS011;6540;50.858;7.232;2023-06-22T10:57:26;3.00;;;2.70;;
12950;SDS011;6540;50.858;7.232;2023-06-22T10:59:52;3.03;;;2.57;;
12950;SDS011;6540;50.858;7.232;2023-06-22T11:02:17;3.13;;;2.83;;
12950;SDS011;6540;50.858;7.232;2023-06-22T11:04:42;2.90;;;2.60;;
12950;SDS011;6540;50.858;7.232;2023-06-22T11:07:08;4.20;;;3.57;;
12950;SDS011;6540;50.858;7.232;2023-06-22T11:09:34;3.10;;;2.80;;
12950;SDS011;6540;50.858;7.232;2023-06-22T11:12:00;3.43;;;3.10;;
12950;SDS011;6540;50.858;7.232;2023-06-22T11:14:25;5.60;;;3.57;;
12950;SDS011;6540;50.858;7.232;2023-06-22T11:16:51;3.93;;;3.53;;
12950;SDS011;6540;50.858;7.232;2023-06-22T11:19:16;4.37;;;3.53;;
12950;SDS011;6540;50.858;7.232;2023-06-22T11:21:42;6.03;;;3.20;;
12950;SDS011;6540;50.858;7.232;2023-06-22T11:24:07;3.33;;;3.03;;
12950;SDS011;6540;50.858;7.232;2023-06-22T11:26:33;2.97;;;2.70;;
12950;SDS011;6540;50.858;7.232;2023-06-22T11:28:58;3.73;;;3.40;;
12950;SDS011;6540;50.858;7.232;2023-06-22T11:31:24;3.20;;;2.90;;
12950;SDS011;6540;50.858;7.232;2023-06-22T11:33:50;2.90;;;2.60;;
12950;SDS011;6540;50.858;7.232;2023-06-22T11:36:16;3.73;;;2.47;;
12950;SDS011;6540;50.858;7.232;2023-06-22T11:38:42;3.87;;;3.50;;
12950;SDS011;6540;50.858;7.232;2023-06-22T11:41:08;3.40;;;3.10;;
12950;SDS011;6540;50.858;7.232;2023-06-22T11:43:34;3.20;;;3.00;;
12950;SDS011;6540;50.858;7.232;2023-06-22T11:46:00;3.33;;;2.73;;
12950;SDS011;6540;50.858;7.232;2023-06-22T11:48:27;3.10;;;2.80;;
12950;SDS011;6540;50.858;7.232;2023-06-22T11:50:52;5.53;;;3.50;;
12950;SDS011;6540;50.858;7.232;2023-06-22T11:53:20;3.03;;;2.83;;
12950;SDS011;6540;50.858;7.232;2023-06-22T11:55:49;2.53;;;2.33;;
12950;SDS011;6540;50.858;7.232;2023-06-22T11:58:18;2.43;;;2.23;;
12950;SDS011;6540;50.858;7.232;2023-06-22T12:00:43;3.23;;;2.27;;
12950;SDS011;6540;50.858;7.232;2023-06-22T12:03:09;2.20;;;2.00;;
12950;SDS011;6540;50.858;7.232;2023-06-22T12:05:37;2.47;;;2.27;;
12950;SDS011;6540;50.858;7.232;2023-06-22T12:08:03;2.97;;;2.67;;
12950;SDS011;6540;50.858;7.232;2023-06-22T12:10:28;2.37;;;2.10;;
12950;SDS011;6540;50.858;7.232;2023-06-22T12:12:53;2.03;;;1.93;;
12950;SDS011;6540;50.858;7.232;2023-06-22T12:15:19;2.57;;;2.27;;
12950;SDS011;6540;50.858;7.232;2023-06-22T12:17:44;1.93;;;1.80;;
12950;SDS011;6540;50.858;7.232;2023-06-22T12:20:10;2.77;;;2.57;;
12950;SDS011;6540;50.858;7.232;2023-06-22T12:22:36;2.80;;;2.60;;
12950;SDS011;6540;50.858;7.232;2023-06-22T12:25:02;2.23;;;2.03;;
12950;SDS011;6540;50.858;7.232;2023-06-22T12:27:28;1.70;;;1.60;;
12950;SDS011;6540;50.858;7.232;2023-06-22T12:29:55;1.93;;;1.73;;
12950;SDS011;6540;50.858;7.232;2023-06-22T12:32:24;2.07;;;1.87;;
12950;SDS011;6540;50.858;7.232;2023-06-22T12:34:50;2.40;;;2.13;;
12950;SDS011;6540;50.858;7.232;2023-06-22T12:37:15;1.57;;;1.47;;
12950;SDS011;6540;50.858;7.232;2023-06-22T12:39:41;2.57;;;1.57;;
12950;SDS011;6540;50.858;7.232;2023-06-22T12:42:07;2.40;;;2.20;;
12950;SDS011;6540;50.858;7.232;2023-06-22T12:44:34;1.73;;;1.63;;
12950;SDS011;6540;50.858;7.232;2023-06-22T12:46:59;1.80;;;1.70;;
12950;SDS011;6540;50.858;7.232;2023-06-22T12:49:25;1.53;;;1.43;;
12950;SDS011;6540;50.858;7.232;2023-06-22T12:51:50;1.47;;;1.10;;
12950;SDS011;6540;50.858;7.232;2023-06-22T12:54:15;1.37;;;1.27;;
12950;SDS011;6540;50.858;7.232;2023-06-22T12:56:41;1.70;;;1.60;;
12950;SDS011;6540;50.858;7.232;2023-06-22T12:59:08;2.33;;;1.97;;
12950;SDS011;6540;50.858;7.232;2023-06-22T13:01:37;1.47;;;1.37;;
12950;SDS011;6540;50.858;7.232;2023-06-22T13:04:02;1.93;;;1.73;;
12950;SDS011;6540;50.858;7.232;2023-06-22T13:06:28;2.80;;;1.93;;
12950;SDS011;6540;50.858;7.232;2023-06-22T13:08:56;2.13;;;2.00;;
12950;SDS011;6540;50.858;7.232;2023-06-22T13:11:22;1.63;;;1.53;;
12950;SDS011;6540;50.858;7.232;2023-06-22T13:13:47;1.70;;;1.50;;
12950;SDS011;6540;50.858;7.232;2023-06-22T13:16:12;1.30;;;1.27;;
12950;SDS011;6540;50.858;7.232;2023-06-22T13:18:38;1.77;;;1.67;;
12950;SDS011;6540;50.858;7.232;2023-06-22T13:21:03;1.80;;;1.70;;
12950;SDS011;6540;50.858;7.232;2023-06-22T13:23:29;2.17;;;2.07;;
12950;SDS011;6540;50.858;7.232;2023-06-22T13:25:54;1.53;;;1.43;;
12950;SDS011;6540;50.858;7.232;2023-06-22T13:28:20;1.57;;;1.47;;
12950;SDS011;6540;50.858;7.232;2023-06-22T13:30:50;2.17;;;2.00;;
12950;SDS011;6540;50.858;7.232;2023-06-22T13:33:16;1.90;;;1.70;;
12950;SDS011;6540;50.858;7.232;2023-06-22T13:35:47;1.70;;;1.60;;
12950;SDS011;6540;50.858;7.232;2023-06-22T13:38:13;1.23;;;1.13;;
12950;SDS011;6540;50.858;7.232;2023-06-22T13:40:38;1.10;;;1.10;;
12950;SDS011;6540;50.858;7.232;2023-06-22T13:43:04;2.17;;;1.77;;
12950;SDS011;6540;50.858;7.232;2023-06-22T13:45:30;1.30;;;1.20;;
12950;SDS011;6540;50.858;7.232;2023-06-22T13:47:58;1.40;;;1.30;;
12950;SDS011;6540;50.858;7.232;2023-06-22T13:50:30;3.67;;;2.07;;
12950;SDS011;6540;50.858;7.232;2023-06-22T13:52:55;2.43;;;2.10;;
12950;SDS011;6540;50.858;7.232;2023-06-22T13:55:28;2.10;;;2.00;;
12950;SDS011;6540;50.858;7.232;2023-06-22T13:57:56;2.37;;;2.03;;
12950;SDS011;6540;50.858;7.232;2023-06-22T14:00:26;3.60;;;2.13;;
12950;SDS011;6540;50.858;7.232;2023-06-22T14:02:53;3.00;;;2.53;;
12950;SDS011;6540;50.858;7.232;2023-06-22T14:05:18;2.27;;;2.10;;
12950;SDS011;6540;50.858;7.232;2023-06-22T14:07:47;2.13;;;1.97;;
12950;SDS011;6540;50.858;7.232;2023-06-22T14:10:12;2.60;;;2.40;;
12950;SDS011;6540;50.858;7.232;2023-06-22T14:12:38;2.57;;;2.37;;
12950;SDS011;6540;50.858;7.232;2023-06-22T14:15:03;2.70;;;2.50;;
12950;SDS011;6540;50.858;7.232;2023-06-22T14:17:29;2.33;;;2.13;;
12950;SDS011;6540;50.858;7.232;2023-06-22T14:19:54;2.87;;;2.67;;
12950;SDS011;6540;50.858;7.232;2023-06-22T14:22:20;1.60;;;1.50;;
12950;SDS011;6540;50.858;7.232;2023-06-22T14:24:50;2.70;;;2.50;;
12950;SDS011;6540;50.858;7.232;2023-06-22T14:27:15;3.87;;;2.37;;
12950;SDS011;6540;50.858;7.232;2023-06-22T14:29:41;2.03;;;1.93;;
12950;SDS011;6540;50.858;7.232;2023-06-22T14:32:06;2.57;;;2.37;;
12950;SDS011;6540;50.858;7.232;2023-06-22T14:34:33;2.93;;;2.70;;
12950;SDS011;6540;50.858;7.232;2023-06-22T14:37:01;2.63;;;2.43;;
12950;SDS011;6540;50.858;7.232;2023-06-22T14:39:27;2.17;;;2.00;;
12950;SDS011;6540;50.858;7.232;2023-06-22T14:41:52;2.10;;;1.90;;
12950;SDS011;6540;50.858;7.232;2023-06-22T14:44:18;2.50;;;2.30;;
12950;SDS011;6540;50.858;7.232;2023-06-22T14:46:44;3.50;;;3.30;;
12950;SDS011;6540;50.858;7.232;2023-06-22T14:49:09;2.37;;;2.17;;
12950;SDS011;6540;50.858;7.232;2023-06-22T14:51:34;2.17;;;2.00;;
12950;SDS011;6540;50.858;7.232;2023-06-22T14:54:00;3.00;;;2.77;;
12950;SDS011;6540;50.858;7.232;2023-06-22T14:56:25;2.40;;;2.20;;
12950;SDS011;6540;50.858;7.232;2023-06-22T14:58:50;2.43;;;2.33;;